Time;durP1;ratioP1;P1;durP2;ratioP2;P2;SDS_P1;SDS_P2;PMS_P1;PMS_P2;Temp;Humidity;BMP_temperature;BMP_pressure;BME280_temperature;BME280_humidity;BME280_pressure;Samples;Min_cycle;Max_cycle;Signal;HPM_P1;HPM_P2
2021/07/19 00:01:58;;;;;;;5.53;4.10;;;17.10;99.90;;;;;;4377138;32;20180;-61
2021/07/19 00:04:26;;;;;;;6.07;3.87;;;17.10;99.90;;;;;;4366309;32;20221;-61
2021/07/19 00:06:54;;;;;;;6.80;4.20;;;17.00;99.90;;;;;;4368798;32;20205;-62
2021/07/19 00:09:22;;;;;;;8.47;4.27;;;17.00;99.90;;;;;;4364257;32;20538;-61
2021/07/19 00:11:49;;;;;;;6.73;4.03;;;17.00;99.90;;;;;;4361672;32;20224;-62
2021/07/19 00:14:37;;;;;;;6.70;4.17;;;17.00;99.90;;;;;;4362340;32;20251;-60
2021/07/19 00:19:54;;;;;;;6.83;3.83;;;16.90;99.90;;;;;;4335148;32;20327;-60
2021/07/19 00:22:22;;;;;;;7.27;3.87;;;16.90;99.90;;;;;;4332762;32;20236;-60
2021/07/19 00:24:49;;;;;;;7.17;4.90;;;16.90;99.90;;;;;;4339809;33;20204;-60
2021/07/19 00:27:16;;;;;;;7.57;4.53;;;16.90;99.90;;;;;;4344716;32;20619;-60
2021/07/19 00:29:43;;;;;;;5.70;3.80;;;16.80;99.90;;;;;;4343637;33;20212;-61
2021/07/19 00:32:10;;;;;;;7.63;4.47;;;16.80;99.90;;;;;;4330632;33;20624;-61
2021/07/19 00:34:37;;;;;;;7.83;4.40;;;16.70;99.90;;;;;;4345407;33;20252;-60
2021/07/19 00:37:04;;;;;;;9.13;4.20;;;16.70;99.90;;;;;;4330334;33;20233;-60
2021/07/19 00:39:34;;;;;;;7.57;4.90;;;16.60;99.90;;;;;;4341846;33;20700;-60
2021/07/19 00:42:01;;;;;;;9.53;4.97;;;16.60;99.90;;;;;;4343088;33;20245;-61
2021/07/19 00:44:28;;;;;;;9.40;5.10;;;16.60;99.90;;;;;;4343554;33;20195;-60
2021/07/19 00:46:58;;;;;;;9.47;5.30;;;16.60;99.90;;;;;;4346676;33;20291;-60
2021/07/19 00:49:28;;;;;;;8.13;4.83;;;16.60;99.90;;;;;;4344811;33;20197;-60
2021/07/19 00:51:55;;;;;;;7.33;4.70;;;16.50;99.90;;;;;;4335912;33;20177;-61
2021/07/19 00:54:25;;;;;;;6.93;5.20;;;16.50;99.90;;;;;;4337584;33;20720;-61
2021/07/19 00:56:56;;;;;;;10.80;5.03;;;16.50;99.90;;;;;;4358258;32;20152;-61
2021/07/19 00:59:25;;;;;;;6.53;4.43;;;16.40;99.90;;;;;;4378026;32;20160;-60
2021/07/19 01:01:55;;;;;;;9.83;4.70;;;16.40;99.90;;;;;;4376208;32;20182;-60
2021/07/19 01:04:25;;;;;;;10.37;4.17;;;16.40;99.90;;;;;;4376242;32;20187;-60
2021/07/19 01:06:54;;;;;;;13.27;5.07;;;16.40;99.90;;;;;;4375867;32;21010;-61
2021/07/19 01:09:23;;;;;;;6.53;5.00;;;16.40;99.90;;;;;;4376924;32;20559;-60
2021/07/19 01:11:50;;;;;;;6.73;4.93;;;16.30;99.90;;;;;;4370658;32;20171;-62
2021/07/19 01:14:18;;;;;;;9.23;5.63;;;16.30;99.90;;;;;;4376347;32;20491;-60
2021/07/19 01:16:45;;;;;;;8.90;5.10;;;16.20;99.90;;;;;;4376278;32;20187;-60
2021/07/19 01:19:15;;;;;;;9.37;5.33;;;16.20;99.90;;;;;;4377345;32;20171;-62
2021/07/19 01:22:08;;;;;;;6.43;4.77;;;16.20;99.90;;;;;;4370371;32;20497;-61
2021/07/19 01:24:46;;;;;;;6.37;4.67;;;16.20;99.90;;;;;;4361295;32;20164;-61
2021/07/19 01:27:50;;;;;;;10.80;5.17;;;16.20;99.90;;;;;;4374310;32;20598;-61
2021/07/19 01:30:19;;;;;;;10.33;4.90;;;16.10;99.90;;;;;;4377264;32;20264;-60
2021/07/19 01:32:49;;;;;;;7.53;4.93;;;16.00;99.90;;;;;;4374102;32;20579;-60
2021/07/19 01:35:16;;;;;;;10.70;5.20;;;16.00;99.90;;;;;;4375844;32;20152;-61
2021/07/19 01:37:46;;;;;;;7.13;5.20;;;16.00;99.90;;;;;;4376081;32;20190;-60
2021/07/19 01:40:13;;;;;;;7.17;5.00;;;16.00;99.90;;;;;;4375291;32;20179;-60
2021/07/19 01:42:41;;;;;;;7.87;5.37;;;16.00;99.90;;;;;;4373950;32;20175;-60
2021/07/19 01:45:09;;;;;;;8.43;5.53;;;15.90;99.90;;;;;;4376260;32;20187;-61
2021/07/19 01:47:39;;;;;;;8.53;5.00;;;15.90;99.90;;;;;;4377502;32;20615;-60
2021/07/19 01:50:07;;;;;;;9.83;5.10;;;15.90;99.90;;;;;;4375303;32;20224;-60
2021/07/19 01:52:33;;;;;;;9.23;5.40;;;15.90;99.90;;;;;;4372268;32;20232;-60
2021/07/19 01:55:01;;;;;;;7.57;5.03;;;15.90;99.90;;;;;;4361727;32;20173;-60
2021/07/19 01:57:29;;;;;;;9.93;5.27;;;15.80;99.90;;;;;;4362840;32;20239;-61
2021/07/19 02:00:01;;;;;;;8.70;5.00;;;15.80;99.90;;;;;;4375769;32;20487;-61
2021/07/19 02:02:29;;;;;;;7.67;4.93;;;15.80;99.90;;;;;;4372314;32;20177;-60
2021/07/19 02:04:57;;;;;;;5.53;4.27;;;15.80;99.90;;;;;;4373315;32;20523;-61
2021/07/19 02:07:26;;;;;;;7.63;5.20;;;15.80;99.90;;;;;;4374718;32;20187;-61
2021/07/19 02:09:53;;;;;;;7.80;5.53;;;15.80;99.90;;;;;;4375058;32;20187;-61
2021/07/19 02:12:21;;;;;;;11.63;5.30;;;15.70;99.90;;;;;;4373783;32;20179;-61
2021/07/19 02:14:48;;;;;;;10.13;5.53;;;15.70;99.90;;;;;;4375644;32;20181;-61
2021/07/19 02:17:18;;;;;;;8.67;5.33;;;15.70;99.90;;;;;;4375450;32;20172;-61
2021/07/19 02:19:48;;;;;;;6.93;4.53;;;15.70;99.90;;;;;;4371561;32;20191;-61
2021/07/19 02:22:18;;;;;;;7.07;4.70;;;15.70;99.90;;;;;;4365637;32;20168;-60
2021/07/19 02:24:47;;;;;;;6.80;5.23;;;15.70;99.90;;;;;;4374231;32;20164;-60
2021/07/19 02:27:15;;;;;;;7.93;5.03;;;15.70;99.90;;;;;;4375083;32;20191;-60
2021/07/19 02:29:42;;;;;;;8.90;5.53;;;15.70;99.90;;;;;;4376109;32;20191;-61
2021/07/19 02:32:09;;;;;;;9.07;5.57;;;15.70;99.90;;;;;;4374944;32;20157;-60
2021/07/19 02:34:38;;;;;;;7.47;5.73;;;15.60;99.90;;;;;;4373007;32;20555;-61
2021/07/19 02:37:07;;;;;;;8.47;5.03;;;15.60;99.90;;;;;;4375304;32;20156;-60
2021/07/19 02:39:37;;;;;;;7.53;5.40;;;15.60;99.90;;;;;;4375660;32;20203;-60
2021/07/19 02:42:05;;;;;;;10.90;5.53;;;15.60;99.90;;;;;;4376119;32;20196;-62
2021/07/19 02:44:32;;;;;;;8.53;6.03;;;15.50;99.90;;;;;;4364655;32;20167;-61
2021/07/19 02:47:01;;;;;;;6.53;5.47;;;15.50;99.90;;;;;;4376941;32;20556;-60
2021/07/19 02:49:28;;;;;;;11.70;5.60;;;15.50;99.90;;;;;;4377001;32;20164;-60
2021/07/19 02:51:56;;;;;;;12.43;5.57;;;15.50;99.90;;;;;;4376753;32;20679;-61
2021/07/19 02:54:26;;;;;;;7.87;5.53;;;15.50;99.90;;;;;;4367852;32;20172;-61
2021/07/19 02:56:55;;;;;;;7.97;5.50;;;15.50;99.90;;;;;;4364262;32;20523;-61
2021/07/19 02:59:23;;;;;;;7.80;5.57;;;15.50;99.90;;;;;;4375313;32;20152;-61
2021/07/19 03:01:53;;;;;;;9.13;5.23;;;15.50;99.90;;;;;;4375927;32;20223;-61
2021/07/19 03:04:21;;;;;;;6.83;5.20;;;15.40;99.90;;;;;;4373292;32;20195;-61
2021/07/19 03:06:51;;;;;;;8.97;5.33;;;15.40;99.90;;;;;;4377886;32;20186;-62
2021/07/19 03:09:21;;;;;;;9.90;5.77;;;15.40;99.90;;;;;;4378632;32;20178;-61
2021/07/19 03:11:51;;;;;;;11.87;5.40;;;15.30;99.90;;;;;;4378186;32;20179;-61
2021/07/19 03:14:23;;;;;;;9.70;5.70;;;15.30;99.90;;;;;;4373403;32;20157;-61
2021/07/19 03:16:53;;;;;;;8.17;5.63;;;15.30;99.90;;;;;;4377703;32;20187;-61
2021/07/19 03:19:20;;;;;;;8.10;5.93;;;15.30;99.90;;;;;;4378009;32;20171;-61
2021/07/19 03:21:51;;;;;;;7.97;5.60;;;15.30;99.90;;;;;;4377611;32;20208;-62
2021/07/19 03:24:19;;;;;;;10.37;6.13;;;15.30;99.90;;;;;;4377276;32;20179;-61
2021/07/19 03:26:50;;;;;;;12.10;6.07;;;15.20;99.90;;;;;;4376913;32;20216;-61
2021/07/19 03:29:19;;;;;;;9.43;5.43;;;15.20;99.90;;;;;;4377894;32;20175;-62
2021/07/19 03:31:49;;;;;;;9.13;6.53;;;15.20;99.90;;;;;;4376973;32;20192;-62
2021/07/19 03:34:21;;;;;;;10.93;6.13;;;15.20;99.90;;;;;;4376233;32;20256;-61
2021/07/19 03:36:52;;;;;;;11.83;6.50;;;15.10;99.90;;;;;;4362830;33;20243;-61
2021/07/19 03:39:23;;;;;;;9.93;7.23;;;15.20;99.90;;;;;;4368583;32;20175;-61
2021/07/19 03:41:51;;;;;;;10.63;6.40;;;15.20;99.90;;;;;;4378014;32;20168;-61
2021/07/19 03:44:19;;;;;;;11.43;6.67;;;15.20;99.90;;;;;;4377819;32;20176;-62
2021/07/19 03:46:47;;;;;;;10.03;6.33;;;15.20;99.90;;;;;;4363737;32;20195;-62
2021/07/19 03:49:18;;;;;;;7.97;5.47;;;15.20;99.90;;;;;;4377364;32;20160;-62
2021/07/19 03:51:49;;;;;;;8.87;6.03;;;15.10;99.90;;;;;;4379219;32;20192;-61
2021/07/19 03:54:16;;;;;;;9.00;5.93;;;15.10;99.90;;;;;;4376792;32;20192;-60
2021/07/19 03:56:44;;;;;;;10.00;6.67;;;15.10;99.90;;;;;;4364266;32;20190;-61
2021/07/19 03:59:12;;;;;;;11.50;7.00;;;15.10;99.90;;;;;;4372354;32;20232;-61
2021/07/19 04:01:40;;;;;;;13.83;6.40;;;15.10;99.90;;;;;;4377547;32;20252;-61
2021/07/19 04:04:10;;;;;;;12.20;7.63;;;15.20;99.90;;;;;;4377618;32;20198;-61
2021/07/19 04:06:39;;;;;;;8.83;6.50;;;15.20;99.90;;;;;;4365870;32;20176;-61
2021/07/19 04:09:08;;;;;;;11.30;6.67;;;15.20;99.90;;;;;;4373827;32;20572;-61
2021/07/19 04:11:35;;;;;;;9.80;6.70;;;15.20;99.90;;;;;;4378728;32;20152;-61
2021/07/19 04:14:02;;;;;;;8.47;5.77;;;15.30;99.90;;;;;;4377759;32;20156;-61
2021/07/19 04:16:36;;;;;;;11.13;6.03;;;15.30;99.90;;;;;;4374855;32;20183;-60
2021/07/19 04:19:03;;;;;;;12.13;6.80;;;15.40;99.90;;;;;;4376383;32;20171;-61
2021/07/19 04:21:33;;;;;;;6.87;5.97;;;15.50;99.90;;;;;;4377215;32;20188;-61
2021/07/19 04:24:01;;;;;;;9.73;6.63;;;15.60;99.90;;;;;;4377562;32;20181;-60
2021/07/19 04:26:28;;;;;;;11.20;6.00;;;15.60;99.90;;;;;;4376456;32;20223;-61
2021/07/19 04:28:56;;;;;;;8.57;6.07;;;15.60;99.90;;;;;;4376528;32;20212;-60
2021/07/19 04:31:23;;;;;;;8.27;6.10;;;15.60;99.90;;;;;;4377406;32;20505;-60
2021/07/19 04:33:50;;;;;;;8.67;6.17;;;15.70;99.90;;;;;;4376647;32;20172;-61
2021/07/19 04:36:17;;;;;;;9.17;5.90;;;15.70;99.90;;;;;;4371662;32;20182;-60
2021/07/19 04:38:47;;;;;;;8.30;5.67;;;15.70;99.90;;;;;;4363606;32;20164;-61
2021/07/19 04:41:18;;;;;;;9.03;6.10;;;15.70;99.90;;;;;;4376131;32;20184;-60
2021/07/19 04:43:46;;;;;;;8.03;5.57;;;15.80;99.90;;;;;;4376866;32;20161;-60
2021/07/19 04:46:15;;;;;;;8.43;5.63;;;15.80;99.90;;;;;;4373672;32;20172;-60
2021/07/19 04:48:42;;;;;;;9.27;5.67;;;15.90;99.90;;;;;;4363480;32;20556;-60
2021/07/19 04:51:09;;;;;;;8.63;5.50;;;16.00;99.90;;;;;;4374753;32;20479;-60
2021/07/19 04:53:36;;;;;;;7.73;5.20;;;16.10;99.90;;;;;;4377553;32;20153;-61
2021/07/19 04:56:06;;;;;;;7.27;5.33;;;16.20;99.90;;;;;;4374855;32;20571;-59
2021/07/19 04:58:34;;;;;;;6.00;5.00;;;16.30;99.90;;;;;;4368909;32;20194;-60
2021/07/19 05:01:04;;;;;;;6.63;5.07;;;16.30;99.90;;;;;;4376244;32;20157;-60
2021/07/19 05:03:37;;;;;;;7.87;5.40;;;16.50;99.90;;;;;;4375899;32;20210;-60
2021/07/19 05:06:06;;;;;;;6.80;4.93;;;16.70;99.90;;;;;;4376034;32;20199;-61
2021/07/19 05:08:33;;;;;;;6.97;4.90;;;16.80;99.90;;;;;;4374600;32;20164;-60
2021/07/19 05:11:02;;;;;;;6.63;5.07;;;17.00;99.90;;;;;;4376345;32;20595;-60
2021/07/19 05:13:31;;;;;;;9.20;5.10;;;17.10;99.90;;;;;;4375504;32;20161;-60
2021/07/19 05:15:59;;;;;;;11.93;5.33;;;17.20;99.90;;;;;;4377004;32;20508;-60
2021/07/19 05:18:27;;;;;;;8.87;5.53;;;17.40;99.90;;;;;;4374104;32;20194;-60
2021/07/19 05:20:55;;;;;;;7.53;5.33;;;17.80;99.90;;;;;;4375820;32;20176;-60
2021/07/19 05:23:23;;;;;;;7.67;4.87;;;18.20;99.90;;;;;;4377054;32;20161;-59
2021/07/19 05:25:50;;;;;;;8.73;5.20;;;18.40;99.90;;;;;;4375298;32;20176;-60
2021/07/19 05:28:17;;;;;;;7.27;4.93;;;18.90;99.90;;;;;;4375075;32;20192;-60
2021/07/19 05:30:47;;;;;;;7.73;4.80;;;20.10;99.90;;;;;;4374983;32;20176;-59
2021/07/19 05:33:15;;;;;;;6.37;4.63;;;23.00;99.90;;;;;;4377367;32;20183;-60
2021/07/19 05:35:42;;;;;;;7.37;4.60;;;25.20;99.90;;;;;;4376090;32;20190;-62
2021/07/19 05:38:09;;;;;;;5.57;4.17;;;27.70;99.50;;;;;;4369148;32;20217;-63
2021/07/19 05:40:36;;;;;;;5.67;3.60;;;28.70;94.70;;;;;;4373851;32;20180;-63
2021/07/19 05:43:08;;;;;;;5.87;4.07;;;27.30;94.10;;;;;;4375565;32;20234;-63
2021/07/19 05:45:36;;;;;;;6.33;4.30;;;25.30;95.50;;;;;;4375306;32;20528;-60
2021/07/19 05:48:08;;;;;;;6.97;4.17;;;24.00;98.90;;;;;;4374167;32;20165;-62
2021/07/19 05:50:35;;;;;;;10.17;4.80;;;23.20;99.90;;;;;;4376228;32;20219;-62
2021/07/19 05:53:02;;;;;;;9.40;4.70;;;22.80;99.90;;;;;;4375653;32;20220;-61
2021/07/19 05:55:34;;;;;;;7.83;4.93;;;22.70;99.90;;;;;;4375222;32;20209;-61
2021/07/19 05:58:01;;;;;;;6.37;4.83;;;22.50;99.90;;;;;;4370465;32;20165;-61
2021/07/19 06:00:28;;;;;;;7.37;4.67;;;22.10;99.90;;;;;;4374177;32;20207;-60
2021/07/19 06:02:55;;;;;;;7.50;4.47;;;21.80;99.90;;;;;;4374794;32;20194;-61
2021/07/19 06:05:23;;;;;;;6.07;4.23;;;21.50;99.90;;;;;;4375134;32;20180;-61
2021/07/19 06:07:53;;;;;;;6.80;4.40;;;21.30;99.90;;;;;;4373837;32;20160;-61
2021/07/19 06:10:21;;;;;;;5.73;4.37;;;21.20;99.90;;;;;;4368540;32;20617;-61
2021/07/19 06:12:55;;;;;;;8.40;4.80;;;21.40;99.90;;;;;;4375093;32;20286;-61
2021/07/19 06:15:21;;;;;;;5.13;4.37;;;21.70;99.90;;;;;;4372776;32;20219;-61
2021/07/19 06:17:49;;;;;;;6.83;4.43;;;22.10;99.90;;;;;;4374099;32;20216;-61
2021/07/19 06:20:18;;;;;;;5.43;4.40;;;22.50;99.90;;;;;;4376061;32;20156;-61
2021/07/19 06:22:48;;;;;;;5.20;4.40;;;22.70;99.90;;;;;;4374454;32;20224;-61
2021/07/19 06:25:16;;;;;;;8.23;4.57;;;22.50;99.90;;;;;;4374481;32;20623;-60
2021/07/19 06:27:43;;;;;;;6.77;4.30;;;22.50;99.90;;;;;;4373225;32;20156;-61
2021/07/19 06:30:12;;;;;;;8.10;4.77;;;22.40;99.90;;;;;;4380328;32;20196;-62
2021/07/19 06:32:39;;;;;;;7.23;4.50;;;22.20;99.90;;;;;;4374865;32;20164;-61
2021/07/19 06:35:07;;;;;;;5.90;4.30;;;22.00;99.90;;;;;;4370384;32;20183;-61
2021/07/19 06:37:34;;;;;;;5.77;4.20;;;21.90;99.90;;;;;;4374410;32;20164;-62
2021/07/19 06:40:03;;;;;;;6.67;4.00;;;21.70;99.90;;;;;;4373851;32;20663;-61
2021/07/19 06:42:30;;;;;;;7.93;4.07;;;21.60;99.90;;;;;;4374742;32;20168;-62
2021/07/19 06:44:57;;;;;;;6.50;4.07;;;21.50;99.90;;;;;;4374678;32;20172;-62
2021/07/19 06:47:24;;;;;;;5.13;4.10;;;21.50;99.90;;;;;;4374542;32;20609;-62
2021/07/19 06:49:51;;;;;;;6.03;4.53;;;21.50;99.90;;;;;;4371659;32;20190;-62
2021/07/19 06:52:18;;;;;;;9.47;4.60;;;21.60;99.90;;;;;;4374400;32;20614;-62
2021/07/19 06:54:45;;;;;;;6.10;3.90;;;21.70;99.90;;;;;;4372779;32;20153;-62
2021/07/19 06:57:13;;;;;;;7.47;4.27;;;21.70;99.90;;;;;;4373544;32;20239;-62
2021/07/19 06:59:40;;;;;;;7.03;4.13;;;21.70;99.90;;;;;;4373470;32;20168;-62
2021/07/19 07:02:09;;;;;;;5.37;4.17;;;21.60;99.90;;;;;;4373534;32;20508;-61
2021/07/19 07:04:36;;;;;;;6.00;3.97;;;21.50;99.90;;;;;;4374827;32;20195;-62
2021/07/19 07:07:04;;;;;;;5.43;4.00;;;21.30;99.90;;;;;;4363176;32;20239;-60
2021/07/19 07:09:48;;;;;;;5.97;3.90;;;21.20;99.90;;;;;;4360211;32;20204;-61
2021/07/19 07:12:20;;;;;;;6.40;3.87;;;21.30;99.90;;;;;;4361104;32;20204;-61
2021/07/19 07:14:50;;;;;;;5.97;3.80;;;21.50;99.90;;;;;;4360429;32;21403;-61
2021/07/19 07:17:17;;;;;;;6.77;4.50;;;21.60;99.90;;;;;;4360746;32;20595;-60
2021/07/19 07:19:47;;;;;;;5.93;4.10;;;21.80;99.90;;;;;;4360378;32;20289;-63
2021/07/19 07:22:14;;;;;;;5.77;4.37;;;21.80;99.90;;;;;;4363043;32;20164;-61
2021/07/19 07:24:49;;;;;;;6.63;3.97;;;21.80;99.90;;;;;;4359072;32;20208;-62
2021/07/19 07:27:19;;;;;;;6.13;4.70;;;21.60;99.90;;;;;;4363973;32;20223;-61
2021/07/19 07:29:48;;;;;;;7.50;4.27;;;21.50;99.90;;;;;;4365497;32;20537;-61
2021/07/19 07:32:14;;;;;;;8.43;4.50;;;21.60;99.90;;;;;;4373977;32;20638;-61
2021/07/19 07:34:41;;;;;;;9.57;4.53;;;21.50;99.90;;;;;;4374273;32;20187;-61
2021/07/19 07:37:12;;;;;;;6.97;4.43;;;21.40;99.90;;;;;;4373371;32;20364;-61
2021/07/19 07:39:39;;;;;;;7.63;5.30;;;21.60;99.90;;;;;;4374433;32;20244;-61
2021/07/19 07:42:06;;;;;;;6.50;4.80;;;21.60;99.90;;;;;;4373204;32;20156;-61
2021/07/19 07:44:32;;;;;;;7.43;4.47;;;21.60;99.90;;;;;;4373800;32;20219;-62
2021/07/19 07:47:01;;;;;;;7.40;4.47;;;21.60;99.90;;;;;;4374149;32;20204;-61
2021/07/19 07:49:27;;;;;;;7.27;4.47;;;21.80;99.90;;;;;;4375147;32;20212;-61
2021/07/19 07:51:58;;;;;;;6.43;3.93;;;22.00;99.90;;;;;;4375494;32;20179;-61
2021/07/19 07:54:25;;;;;;;7.20;4.93;;;22.30;99.90;;;;;;4375610;32;20163;-61
2021/07/19 07:56:52;;;;;;;6.17;4.17;;;23.00;99.90;;;;;;4375102;32;20615;-62
2021/07/19 07:59:20;;;;;;;10.37;5.23;;;24.20;99.90;;;;;;4368449;32;20263;-62
2021/07/19 08:01:47;;;;;;;10.03;4.60;;;25.50;98.30;;;;;;4371396;32;20180;-62
2021/07/19 08:04:15;;;;;;;8.20;4.85;;;26.40;95.70;;;;;;4367206;32;20588;-62
2021/07/19 08:06:43;;;;;;;8.82;5.30;;;27.00;95.00;;;;;;4362197;32;20153;-63
2021/07/19 08:09:10;;;;;;;7.47;4.55;;;26.80;94.20;;;;;;4369215;32;20210;-63
2021/07/19 08:11:37;;;;;;;5.72;4.82;;;25.80;94.50;;;;;;4360363;32;20474;-62
2021/07/19 08:14:03;;;;;;;6.00;4.97;;;25.10;95.90;;;;;;4372712;32;20208;-62
2021/07/19 08:16:30;;;;;;;7.28;4.62;;;24.70;96.10;;;;;;4363220;32;20183;-62
2021/07/19 08:18:57;;;;;;;6.37;4.90;;;24.50;96.90;;;;;;4371352;32;20172;-62
2021/07/19 08:21:25;;;;;;;9.10;4.65;;;24.20;97.50;;;;;;4361763;32;20600;-61
2021/07/19 08:23:52;;;;;;;6.60;5.40;;;24.10;98.00;;;;;;4362518;32;20231;-62
2021/07/19 08:26:19;;;;;;;7.82;5.00;;;24.20;97.50;;;;;;4363025;32;22225;-61
2021/07/19 08:28:46;;;;;;;8.25;5.35;;;24.20;97.70;;;;;;4359390;33;20585;-61
2021/07/19 08:31:13;;;;;;;8.73;4.97;;;24.00;98.10;;;;;;4363629;32;20168;-62
2021/07/19 08:33:40;;;;;;;7.28;5.00;;;23.90;98.30;;;;;;4359574;32;20179;-61
2021/07/19 08:36:06;;;;;;;10.60;6.05;;;23.70;98.40;;;;;;4365167;32;20179;-62
2021/07/19 08:38:35;;;;;;;7.97;5.57;;;23.50;98.30;;;;;;4367676;32;20171;-62
2021/07/19 08:41:01;;;;;;;9.07;5.43;;;23.30;99.00;;;;;;4361219;32;20204;-61
2021/07/19 08:43:30;;;;;;;8.50;5.70;;;23.20;99.60;;;;;;4361525;32;20175;-62
2021/07/19 08:45:57;;;;;;;7.10;5.57;;;23.10;99.70;;;;;;4360811;33;20157;-63
2021/07/19 08:48:24;;;;;;;6.50;5.27;;;23.00;99.90;;;;;;4361735;32;20270;-61
2021/07/19 08:50:51;;;;;;;9.18;5.97;;;23.30;99.90;;;;;;4365499;32;20220;-61
2021/07/19 08:53:19;;;;;;;11.93;6.00;;;24.40;98.90;;;;;;4361827;32;20160;-61
2021/07/19 08:55:50;;;;;;;8.95;5.62;;;26.00;96.00;;;;;;4364219;32;20222;-62
2021/07/19 08:58:17;;;;;;;9.97;5.87;;;26.10;94.90;;;;;;4361247;32;20179;-62
2021/07/19 09:00:44;;;;;;;6.87;5.30;;;25.40;95.50;;;;;;4372432;32;20164;-62
2021/07/19 09:03:11;;;;;;;11.33;6.53;;;25.00;96.40;;;;;;4372969;32;20183;-62
2021/07/19 09:05:38;;;;;;;7.97;5.07;;;24.70;96.20;;;;;;4375393;32;20611;-62
2021/07/19 09:08:06;;;;;;;9.23;5.15;;;24.70;96.90;;;;;;4374907;32;20160;-61
2021/07/19 09:10:34;;;;;;;10.25;5.80;;;25.10;96.80;;;;;;4374965;32;20172;-62
2021/07/19 09:13:02;;;;;;;6.65;5.40;;;25.00;96.50;;;;;;4372631;32;20156;-61
2021/07/19 09:15:31;;;;;;;10.13;6.00;;;24.70;96.70;;;;;;4374412;32;20200;-61
2021/07/19 09:17:59;;;;;;;9.27;5.55;;;24.40;97.00;;;;;;4375468;32;20160;-62
2021/07/19 09:20:30;;;;;;;8.32;5.78;;;24.80;97.30;;;;;;4374078;32;20515;-61
2021/07/19 09:22:58;;;;;;;11.55;5.85;;;26.20;96.50;;;;;;4372709;32;20212;-62
2021/07/19 09:25:25;;;;;;;7.65;6.22;;;27.80;94.10;;;;;;4374829;32;20188;-62
2021/07/19 09:27:54;;;;;;;10.05;6.20;;;28.90;92.70;;;;;;4374831;32;20161;-61
2021/07/19 09:30:26;;;;;;;6.57;5.28;;;29.00;91.80;;;;;;4374604;32;20179;-61
2021/07/19 09:33:01;;;;;;;8.63;5.75;;;28.80;90.40;;;;;;4359925;32;20667;-62
2021/07/19 09:35:30;;;;;;;9.68;6.28;;;28.30;91.30;;;;;;4375492;32;20152;-61
2021/07/19 09:38:02;;;;;;;8.48;5.35;;;28.50;91.10;;;;;;4373474;32;20157;-61
2021/07/19 09:40:31;;;;;;;7.47;5.53;;;28.70;90.90;;;;;;4373292;32;20186;-61
2021/07/19 09:42:58;;;;;;;8.57;5.93;;;28.80;90.30;;;;;;4377172;32;20160;-62
2021/07/19 09:45:32;;;;;;;7.20;5.72;;;27.80;90.80;;;;;;4377975;32;20169;-62
2021/07/19 09:48:05;;;;;;;8.43;6.43;;;27.00;92.00;;;;;;4373888;32;20167;-61
2021/07/19 09:50:47;;;;;;;8.32;5.90;;;26.30;93.20;;;;;;4375760;32;20191;-60
2021/07/19 09:53:14;;;;;;;8.88;5.85;;;25.70;94.00;;;;;;4374792;32;20202;-61
2021/07/19 09:55:41;;;;;;;8.07;5.90;;;25.10;95.10;;;;;;4373972;32;20606;-62
2021/07/19 09:58:08;;;;;;;10.60;6.72;;;24.60;96.00;;;;;;4373682;32;20218;-61
2021/07/19 10:00:36;;;;;;;8.25;6.60;;;24.10;96.70;;;;;;4371451;32;20180;-61
2021/07/19 10:03:14;;;;;;;9.40;6.62;;;23.90;97.30;;;;;;4374937;32;20195;-60
2021/07/19 10:05:40;;;;;;;8.68;6.12;;;23.40;97.70;;;;;;4375378;32;20265;-63
2021/07/19 10:08:07;;;;;;;8.38;6.07;;;23.00;98.80;;;;;;4375210;32;20194;-62
2021/07/19 10:10:36;;;;;;;9.63;6.60;;;22.70;99.90;;;;;;4374719;32;20167;-62
2021/07/19 10:13:05;;;;;;;7.30;6.40;;;22.40;99.90;;;;;;4374746;32;20144;-62
2021/07/19 10:15:33;;;;;;;9.97;6.83;;;22.10;99.90;;;;;;4374201;32;20172;-63
2021/07/19 10:18:04;;;;;;;14.57;7.93;;;22.10;99.90;;;;;;4374988;32;20182;-62
2021/07/19 10:20:31;;;;;;;11.37;7.17;;;22.10;99.90;;;;;;4373697;32;20258;-61
2021/07/19 10:22:58;;;;;;;13.73;7.10;;;22.80;99.90;;;;;;4373842;32;20203;-61
2021/07/19 10:25:25;;;;;;;8.90;6.57;;;23.60;99.60;;;;;;4373910;32;20223;-62
2021/07/19 10:27:52;;;;;;;10.70;7.45;;;24.20;98.50;;;;;;4374527;32;20164;-61
2021/07/19 10:30:19;;;;;;;10.15;7.03;;;24.80;97.90;;;;;;4371925;32;20153;-62
2021/07/19 10:32:46;;;;;;;10.80;6.60;;;25.30;97.50;;;;;;4374671;32;20235;-60
2021/07/19 10:35:16;;;;;;;15.15;7.20;;;25.70;96.40;;;;;;4374467;32;20243;-61
2021/07/19 10:37:51;;;;;;;9.13;6.68;;;25.80;95.60;;;;;;4373756;32;20168;-62
2021/07/19 10:40:24;;;;;;;12.82;7.20;;;26.00;95.60;;;;;;4374333;32;20156;-61
2021/07/19 10:42:51;;;;;;;9.18;6.80;;;26.20;95.60;;;;;;4371417;32;20616;-61
2021/07/19 10:45:19;;;;;;;8.77;7.50;;;26.30;94.50;;;;;;4375131;32;20191;-61
2021/07/19 10:47:48;;;;;;;12.02;7.07;;;26.40;94.00;;;;;;4375311;32;20634;-62
2021/07/19 10:50:19;;;;;;;10.18;7.47;;;26.80;93.90;;;;;;4375576;32;20164;-60
2021/07/19 10:52:46;;;;;;;9.70;7.22;;;27.30;93.30;;;;;;4374264;32;20480;-62
2021/07/19 10:55:26;;;;;;;10.18;6.72;;;27.10;92.20;;;;;;4375620;32;20179;-60
2021/07/19 10:58:02;;;;;;;11.07;7.22;;;26.50;92.60;;;;;;4366734;32;20553;-61
2021/07/19 11:00:30;;;;;;;11.68;8.32;;;25.30;92.90;;;;;;4372799;32;20164;-62
2021/07/19 11:03:02;;;;;;;9.68;7.05;;;24.00;95.40;;;;;;4373320;32;20172;-62
2021/07/19 11:05:38;;;;;;;11.07;8.00;;;23.60;97.20;;;;;;4374781;32;20492;-61
2021/07/19 11:08:07;;;;;;;11.10;7.55;;;23.20;98.10;;;;;;4375281;32;20254;-62
2021/07/19 11:10:45;;;;;;;8.40;6.60;;;22.90;99.30;;;;;;4373356;32;20233;-62
2021/07/19 11:13:23;;;;;;;10.13;7.50;;;22.80;98.70;;;;;;4371078;32;20160;-62
2021/07/19 11:15:51;;;;;;;10.98;7.75;;;23.00;99.50;;;;;;4372793;32;20184;-62
2021/07/19 11:18:19;;;;;;;10.47;7.10;;;23.20;98.70;;;;;;4374005;32;20581;-63
2021/07/19 11:20:48;;;;;;;11.30;7.27;;;23.20;99.30;;;;;;4374534;32;20291;-61
2021/07/19 11:23:26;;;;;;;10.27;7.80;;;23.80;98.40;;;;;;4372886;32;20629;-61
2021/07/19 11:25:53;;;;;;;10.83;7.30;;;23.80;98.30;;;;;;4373328;32;20183;-63
2021/07/19 11:28:22;;;;;;;10.98;7.03;;;24.50;97.50;;;;;;4375895;32;20245;-61
2021/07/19 11:31:07;;;;;;;10.07;7.07;;;25.20;96.30;;;;;;4377624;32;20164;-61
2021/07/19 11:33:37;;;;;;;9.85;7.15;;;25.60;95.00;;;;;;4373821;32;20178;-62
2021/07/19 11:36:18;;;;;;;8.93;7.32;;;25.60;95.10;;;;;;4375328;32;20183;-61
2021/07/19 11:38:45;;;;;;;7.95;6.97;;;25.60;95.00;;;;;;4377687;32;20441;-61
2021/07/19 11:41:18;;;;;;;9.88;7.07;;;25.60;94.70;;;;;;4374980;32;20145;-61
2021/07/19 11:43:45;;;;;;;10.43;7.30;;;25.80;94.80;;;;;;4372134;32;20223;-61
2021/07/19 11:46:13;;;;;;;10.05;6.47;;;26.30;94.70;;;;;;4376407;32;20160;-61
2021/07/19 11:48:43;;;;;;;9.43;6.78;;;27.00;93.70;;;;;;4375729;32;20611;-61
2021/07/19 11:51:12;;;;;;;9.88;7.45;;;27.40;92.10;;;;;;4373596;32;20144;-61
2021/07/19 11:53:44;;;;;;;7.87;6.57;;;27.50;91.80;;;;;;4374050;32;20168;-61
2021/07/19 11:56:11;;;;;;;9.63;6.75;;;27.40;89.40;;;;;;4377669;32;20160;-61
2021/07/19 11:58:42;;;;;;;9.55;6.93;;;27.10;91.20;;;;;;4376888;32;20188;-62
2021/07/19 12:01:09;;;;;;;9.52;6.65;;;26.70;92.10;;;;;;4375746;32;20596;-61
2021/07/19 12:03:36;;;;;;;8.55;7.12;;;26.20;92.50;;;;;;4376895;32;20175;-62
2021/07/19 12:06:03;;;;;;;8.80;6.80;;;25.40;92.30;;;;;;4376298;32;20230;-62
2021/07/19 12:08:33;;;;;;;9.27;6.60;;;25.10;92.60;;;;;;4377873;32;20216;-63
2021/07/19 12:11:01;;;;;;;11.00;6.35;;;25.50;92.90;;;;;;4375991;32;20179;-61
2021/07/19 12:13:33;;;;;;;12.77;6.40;;;25.80;93.10;;;;;;4374775;32;20216;-62
2021/07/19 12:16:00;;;;;;;7.78;5.55;;;26.00;92.30;;;;;;4370517;32;20219;-61
2021/07/19 12:18:29;;;;;;;8.45;6.37;;;25.90;92.80;;;;;;4376459;32;20145;-62
2021/07/19 12:20:59;;;;;;;9.05;6.65;;;25.80;92.40;;;;;;4376957;32;20489;-62
2021/07/19 12:23:39;;;;;;;9.63;6.60;;;25.50;92.90;;;;;;4376719;32;20186;-63
2021/07/19 12:26:06;;;;;;;9.10;6.05;;;25.20;93.50;;;;;;4368796;32;20178;-62
2021/07/19 12:28:33;;;;;;;11.95;6.87;;;25.40;93.20;;;;;;4376471;32;20168;-62
2021/07/19 12:31:12;;;;;;;9.35;6.50;;;25.60;93.20;;;;;;4375522;32;20172;-62
2021/07/19 12:33:39;;;;;;;10.60;6.00;;;25.90;92.40;;;;;;4376706;32;20148;-62
2021/07/19 12:36:06;;;;;;;8.93;6.12;;;26.00;92.30;;;;;;4375717;32;20179;-62
2021/07/19 12:38:33;;;;;;;9.13;6.80;;;25.70;91.70;;;;;;4375866;32;20170;-62
2021/07/19 12:41:02;;;;;;;8.05;5.82;;;25.50;92.50;;;;;;4374818;32;20533;-63
2021/07/19 12:43:31;;;;;;;9.52;6.07;;;25.50;92.20;;;;;;4375636;32;20325;-63
2021/07/19 12:45:58;;;;;;;9.70;7.45;;;25.50;93.10;;;;;;4374278;32;20152;-63
2021/07/19 12:48:25;;;;;;;10.35;6.93;;;25.60;93.80;;;;;;4375524;32;20195;-62
2021/07/19 12:51:00;;;;;;;8.82;6.28;;;25.60;93.10;;;;;;4375356;32;20210;-63
2021/07/19 12:53:33;;;;;;;6.82;5.78;;;26.00;92.30;;;;;;4376148;32;20187;-62
2021/07/19 12:56:14;;;;;;;10.93;6.87;;;26.20;92.10;;;;;;4374785;32;20163;-62
2021/07/19 12:58:52;;;;;;;9.18;6.93;;;26.30;91.80;;;;;;4375946;32;20604;-62